createdAt,value
2023-03-19T00:00:51.618Z,67.55
2023-03-19T00:01:51.638Z,67.96
2023-03-19T00:02:51.688Z,67.66
2023-03-19T00:03:51.621Z,67.96
2023-03-19T00:04:51.593Z,67.15
2023-03-19T00:05:51.605Z,66.94
2023-03-19T00:06:51.561Z,66.64
2023-03-19T00:07:51.550Z,66.74
2023-03-19T00:08:51.533Z,66.85
2023-03-19T00:09:51.528Z,66.54
2023-03-19T00:10:51.511Z,66.44
2023-03-19T00:11:51.539Z,66.23
2023-03-19T00:12:51.509Z,66.33
2023-03-19T00:13:51.482Z,66.64
2023-03-19T00:14:51.461Z,66.74
2023-03-19T00:15:51.484Z,66.13
2023-03-19T00:16:51.475Z,65.92
2023-03-19T00:17:51.430Z,65.62
2023-03-19T00:18:51.417Z,65.62
2023-03-19T00:19:51.436Z,65.83
2023-03-19T00:20:51.455Z,65.62
2023-03-19T00:21:51.407Z,65.62
2023-03-19T00:22:51.408Z,65.72
2023-03-19T00:23:51.420Z,65.42
2023-03-19T00:24:51.356Z,65.83
2023-03-19T00:25:51.373Z,65.34
2023-03-19T00:26:51.342Z,65.42
2023-03-19T00:27:51.362Z,65.31
2023-03-19T00:28:51.454Z,65.31
2023-03-19T00:29:51.327Z,65.42
2023-03-19T00:30:51.447Z,65.72
2023-03-19T00:31:51.276Z,65.34
2023-03-19T00:32:51.326Z,65.75
2023-03-19T00:33:51.292Z,64.94
2023-03-19T00:34:51.257Z,65.14
2023-03-19T00:35:51.264Z,65.34
2023-03-19T00:36:51.229Z,65.14
2023-03-19T00:37:51.222Z,65.45
2023-03-19T00:38:51.212Z,65.25
2023-03-19T00:39:51.224Z,65.45
2023-03-19T00:40:51.190Z,65.14
2023-03-19T00:41:51.179Z,65.25
2023-03-19T00:42:51.170Z,65.34
2023-03-19T00:43:51.148Z,65.14
2023-03-19T00:44:51.200Z,65.95
2023-03-19T00:45:51.151Z,65.14
2023-03-19T00:46:51.122Z,65.34
2023-03-19T00:47:51.120Z,65.34
2023-03-19T00:48:51.117Z,65.25
2023-03-19T00:49:51.121Z,65.28
2023-03-19T00:50:51.135Z,65.58
2023-03-19T00:51:51.059Z,65.55
2023-03-19T00:52:51.117Z,65.55
2023-03-19T00:53:51.043Z,65.48
2023-03-19T00:54:51.059Z,65.58
2023-03-19T00:55:51.026Z,65.89
2023-03-19T00:56:51.063Z,65.89
2023-03-19T00:57:51.000Z,65.68
2023-03-19T00:58:50.997Z,65.65
2023-03-19T00:59:50.978Z,65.99
2023-03-19T01:00:51.027Z,65.68
2023-03-19T01:01:50.981Z,65.78
2023-03-19T01:02:50.947Z,65.78
2023-03-19T01:03:50.941Z,65.78
2023-03-19T01:04:50.914Z,65.68
2023-03-19T01:05:50.948Z,65.68
2023-03-19T01:06:50.926Z,65.58
2023-03-19T01:07:50.916Z,65.68
2023-03-19T01:08:50.876Z,65.07
2023-03-19T01:09:50.881Z,65.28
2023-03-19T01:10:50.845Z,65.68
2023-03-19T01:11:50.867Z,65.68
2023-03-19T01:12:50.825Z,65.61
2023-03-19T01:13:50.824Z,65.89
2023-03-19T01:14:50.810Z,65.89
2023-03-19T01:15:50.796Z,65.68
2023-03-19T01:16:50.810Z,65.89
2023-03-19T01:17:50.800Z,65.37
2023-03-19T01:18:50.767Z,65.61
2023-03-19T01:19:50.766Z,65.20
2023-03-19T01:20:50.737Z,65.92
2023-03-19T01:21:50.729Z,65.92
2023-03-19T01:22:50.751Z,65.48
2023-03-19T01:23:50.703Z,65.99
2023-03-19T01:24:50.703Z,65.20
2023-03-19T01:25:50.698Z,65.31
2023-03-19T01:26:50.682Z,65.51
2023-03-19T01:27:50.692Z,65.28
2023-03-19T01:28:50.657Z,65.31
2023-03-19T01:29:50.642Z,64.90
2023-03-19T01:30:50.657Z,65.20
2023-03-19T01:31:50.624Z,65.41
2023-03-19T01:32:50.701Z,65.20
2023-03-19T01:33:50.604Z,65.23
2023-03-19T01:34:50.620Z,65.41
2023-03-19T01:35:50.661Z,65.44
2023-03-19T01:36:50.563Z,65.44
2023-03-19T01:37:50.553Z,65.41
2023-03-19T01:38:50.546Z,64.83
2023-03-19T01:39:50.560Z,64.93
2023-03-19T01:40:50.550Z,63.47
2023-03-19T01:41:50.555Z,65.10
2023-03-19T01:42:50.505Z,64.62
2023-03-19T01:43:50.482Z,64.83
2023-03-19T01:44:50.479Z,64.83
2023-03-19T01:45:51.455Z,64.83
2023-03-19T01:46:50.500Z,64.52
2023-03-19T01:47:50.480Z,64.59
2023-03-19T01:48:50.522Z,64.42
2023-03-19T01:49:50.423Z,65.03
2023-03-19T01:50:50.412Z,64.79
2023-03-19T01:51:50.403Z,64.90
2023-03-19T01:52:50.382Z,64.31
2023-03-19T01:53:50.405Z,64.72
2023-03-19T01:54:50.380Z,64.22
2023-03-19T01:55:50.353Z,64.01
2023-03-19T01:56:50.385Z,63.98
2023-03-19T01:57:50.360Z,64.11
2023-03-19T01:58:50.333Z,63.90
2023-03-19T01:59:50.321Z,63.90
2023-03-19T02:00:50.315Z,63.60
2023-03-19T02:01:50.385Z,64.22
2023-03-19T02:02:50.314Z,63.90
2023-03-19T02:03:50.288Z,63.29
2023-03-19T02:04:50.327Z,64.52
2023-03-19T02:05:50.252Z,63.90
2023-03-19T02:06:50.265Z,63.90
2023-03-19T02:07:50.229Z,63.81
2023-03-19T02:08:50.210Z,63.81
2023-03-19T02:09:50.205Z,63.90
2023-03-19T02:10:50.195Z,63.70
2023-03-19T02:11:50.192Z,63.49
2023-03-19T02:12:50.260Z,63.19
2023-03-19T02:13:50.178Z,64.22
2023-03-19T02:14:50.143Z,63.81
2023-03-19T02:15:50.222Z,64.42
2023-03-19T02:16:50.138Z,63.60
2023-03-19T02:17:50.163Z,63.70
2023-03-19T02:18:50.099Z,63.81
2023-03-19T02:19:50.086Z,64.31
2023-03-19T02:20:50.101Z,63.90
2023-03-19T02:21:50.076Z,63.81
2023-03-19T02:22:50.057Z,63.93
2023-03-19T02:23:50.076Z,64.24
2023-03-19T02:24:50.042Z,64.22
2023-03-19T02:25:50.092Z,64.86
2023-03-19T02:26:50.023Z,65.13
2023-03-19T02:27:49.997Z,64.52
2023-03-19T02:28:50.003Z,64.45
2023-03-19T02:29:49.977Z,64.31
2023-03-19T02:30:49.971Z,64.42
2023-03-19T02:31:49.990Z,64.31
2023-03-19T02:32:50.009Z,64.72
2023-03-19T02:33:50.019Z,64.83
2023-03-19T02:34:49.935Z,65.37
2023-03-19T02:35:49.930Z,65.54
2023-03-19T02:36:49.920Z,64.93
2023-03-19T02:37:49.897Z,64.93
2023-03-19T02:38:58.935Z,64.83
2023-03-19T02:39:49.901Z,65.13
2023-03-19T02:40:49.871Z,64.93
2023-03-19T02:41:58.969Z,64.72
2023-03-19T02:42:49.854Z,64.62
2023-03-19T02:43:58.998Z,65.13
2023-03-19T02:44:49.817Z,63.70
2023-03-19T02:45:49.830Z,64.72
2023-03-19T02:46:49.841Z,64.31
2023-03-19T02:47:49.778Z,64.42
2023-03-19T02:48:49.775Z,64.31
2023-03-19T02:49:49.794Z,65.03
2023-03-19T02:50:49.748Z,64.62
2023-03-19T02:51:49.735Z,64.52
2023-03-19T02:52:49.740Z,64.83
2023-03-19T02:53:49.729Z,64.83
2023-03-19T02:54:49.715Z,65.13
2023-03-19T02:55:49.750Z,65.44
2023-03-19T02:56:49.690Z,64.93
2023-03-19T02:57:59.061Z,65.26
2023-03-19T02:58:49.661Z,64.83
2023-03-19T02:59:49.650Z,64.22
2023-03-19T03:00:49.693Z,64.62
2023-03-19T03:01:49.685Z,64.11
2023-03-19T03:02:49.619Z,64.72
2023-03-19T03:03:49.618Z,64.22
2023-03-19T03:04:49.603Z,64.72
2023-03-19T03:05:49.646Z,64.22
2023-03-19T03:06:49.572Z,64.93
2023-03-19T03:07:49.570Z,64.11
2023-03-19T03:08:49.628Z,64.01
2023-03-19T03:09:49.553Z,64.62
2023-03-19T03:10:49.541Z,64.52
2023-03-19T03:11:49.524Z,64.62
2023-03-19T03:12:49.515Z,64.11
2023-03-19T03:13:49.512Z,64.42
2023-03-19T03:14:49.520Z,64.01
2023-03-19T03:15:49.485Z,64.22
2023-03-19T03:16:49.470Z,64.42
2023-03-19T03:17:49.510Z,64.22
2023-03-19T03:18:49.481Z,63.83
2023-03-19T03:19:49.460Z,64.04
2023-03-19T03:20:49.481Z,64.45
2023-03-19T03:21:49.430Z,64.42
2023-03-19T03:22:49.446Z,64.01
2023-03-19T03:23:50.036Z,63.63
2023-03-19T03:24:49.427Z,63.93
2023-03-19T03:25:49.380Z,63.90
2023-03-19T03:26:49.364Z,63.32
2023-03-19T03:27:49.395Z,63.19
2023-03-19T03:28:49.354Z,63.19
2023-03-19T03:29:49.331Z,63.60
2023-03-19T03:30:49.370Z,64.22
2023-03-19T03:31:49.377Z,64.34
2023-03-19T03:32:49.379Z,64.31
2023-03-19T03:33:49.323Z,63.49
2023-03-19T03:34:49.285Z,64.34
2023-03-19T03:35:49.285Z,63.49
2023-03-19T03:36:49.280Z,64.22
2023-03-19T03:37:49.259Z,64.31
2023-03-19T03:38:49.277Z,64.11
2023-03-19T03:39:49.275Z,63.60
2023-03-19T03:40:49.997Z,63.53
2023-03-19T03:41:49.201Z,64.04
2023-03-19T03:42:49.200Z,64.24
2023-03-19T03:43:49.184Z,63.83
2023-03-19T03:44:49.165Z,63.93
2023-03-19T03:45:49.274Z,64.14
2023-03-19T03:46:49.176Z,64.04
2023-03-19T03:47:49.130Z,64.24
2023-03-19T03:48:49.127Z,64.27
2023-03-19T03:49:49.120Z,64.24
2023-03-19T03:50:49.168Z,64.65
2023-03-19T03:51:49.117Z,64.86
2023-03-19T03:52:49.099Z,64.86
2023-03-19T03:53:49.083Z,65.06
2023-03-19T03:54:49.071Z,65.77
2023-03-19T03:55:49.049Z,64.75
2023-03-19T03:56:49.094Z,65.50
2023-03-19T03:57:49.031Z,65.57
2023-03-19T03:58:49.013Z,65.50
2023-03-19T03:59:49.014Z,65.57
2023-03-19T04:00:48.993Z,65.67
2023-03-19T04:01:49.115Z,65.57
2023-03-19T04:02:49.016Z,65.47
2023-03-19T04:03:48.967Z,65.57
2023-03-19T04:04:48.987Z,65.06
2023-03-19T04:05:48.945Z,65.06
2023-03-19T04:06:48.934Z,65.06
2023-03-19T04:07:48.973Z,65.19
2023-03-19T04:08:48.984Z,64.17
2023-03-19T04:09:48.928Z,64.48
2023-03-19T04:10:48.955Z,65.47
2023-03-19T04:11:51.381Z,64.65
2023-03-19T04:12:48.938Z,65.50
2023-03-19T04:13:48.895Z,65.26
2023-03-19T04:14:48.882Z,64.86
2023-03-19T04:15:48.837Z,65.16
2023-03-19T04:16:48.941Z,65.57
2023-03-19T04:17:48.820Z,64.75
2023-03-19T04:18:48.835Z,64.45
2023-03-19T04:19:48.791Z,65.26
2023-03-19T04:20:48.795Z,65.30
2023-03-19T04:21:48.771Z,65.26
2023-03-19T04:22:48.797Z,65.16
2023-03-19T04:23:48.745Z,65.77
2023-03-19T04:24:48.758Z,65.06
2023-03-19T04:25:48.754Z,64.96
2023-03-19T04:26:48.719Z,64.45
2023-03-19T04:27:48.694Z,65.16
2023-03-19T04:28:48.713Z,65.09
2023-03-19T04:29:48.734Z,65.06
2023-03-19T04:30:48.703Z,64.48
2023-03-19T04:31:48.662Z,64.86
2023-03-19T04:32:48.709Z,65.06
2023-03-19T04:33:48.646Z,65.09
2023-03-19T04:34:48.667Z,64.96
2023-03-19T04:35:48.667Z,65.16
2023-03-19T04:36:48.596Z,64.65
2023-03-19T04:37:48.860Z,65.30
2023-03-19T04:38:48.577Z,64.78
2023-03-19T04:39:48.575Z,64.07
2023-03-19T04:40:48.584Z,64.99
2023-03-19T04:41:48.597Z,65.40
2023-03-19T04:42:48.567Z,65.50
2023-03-19T04:43:48.564Z,65.60
2023-03-19T04:44:48.601Z,65.60
2023-03-19T04:45:48.598Z,65.63
2023-03-19T04:46:48.513Z,65.94
2023-03-19T04:47:48.490Z,65.80
2023-03-19T04:48:48.466Z,66.31
2023-03-19T04:49:48.460Z,66.52
2023-03-19T04:50:48.446Z,66.83
2023-03-19T04:51:48.487Z,66.93
2023-03-19T04:52:48.424Z,66.80
2023-03-19T04:53:48.418Z,67.21
2023-03-19T04:54:48.407Z,67.41
2023-03-19T04:55:48.388Z,68.12
2023-03-19T04:56:48.378Z,68.94
2023-03-19T04:57:48.408Z,69.24
2023-03-19T04:58:48.360Z,69.65
2023-03-19T04:59:48.368Z,71.09
2023-03-19T05:00:48.376Z,70.78
2023-03-19T05:01:48.397Z,70.88
2023-03-19T05:02:48.351Z,71.70
2023-03-19T05:03:48.313Z,71.80
2023-03-19T05:04:48.302Z,73.06
2023-03-19T05:05:48.319Z,73.68
2023-03-19T05:06:48.275Z,74.35
2023-03-19T05:07:48.262Z,74.25
2023-03-19T05:08:48.269Z,74.46
2023-03-19T05:09:48.261Z,74.05
2023-03-19T05:10:48.258Z,74.05
2023-03-19T05:11:48.219Z,73.77
2023-03-19T05:12:48.205Z,75.21
2023-03-19T05:13:48.228Z,75.51
2023-03-19T05:14:48.184Z,75.31
2023-03-19T05:15:48.176Z,75.31
2023-03-19T05:16:48.170Z,75.51
2023-03-19T05:17:48.156Z,75.82
2023-03-19T05:18:48.170Z,76.94
2023-03-19T05:19:48.153Z,77.86
2023-03-19T05:20:48.115Z,78.48
2023-03-19T05:21:48.110Z,78.68
2023-03-19T05:22:48.096Z,78.88
2023-03-19T05:23:48.120Z,79.60
2023-03-19T05:24:48.083Z,79.80
2023-03-19T05:25:48.570Z,80.52
2023-03-19T05:26:48.056Z,80.21
2023-03-19T05:27:48.055Z,80.42
2023-03-19T05:28:48.063Z,80.93
2023-03-19T05:29:48.051Z,81.13
2023-03-19T05:30:48.148Z,81.44
2023-03-19T05:31:48.010Z,81.24
2023-03-19T05:32:48.024Z,81.74
2023-03-19T05:33:47.971Z,81.95
2023-03-19T05:34:48.008Z,82.15
2023-03-19T05:35:48.055Z,81.95
2023-03-19T05:36:47.940Z,83.18
2023-03-19T05:37:47.930Z,82.97
2023-03-19T05:38:47.920Z,82.77
2023-03-19T05:39:47.936Z,82.67
2023-03-19T05:40:47.923Z,82.77
2023-03-19T05:41:47.888Z,82.46
2023-03-19T05:42:47.879Z,83.24
2023-03-19T05:43:47.864Z,82.77
2023-03-19T05:44:47.866Z,82.67
2023-03-19T05:45:47.853Z,83.38
2023-03-19T05:46:47.921Z,83.14
2023-03-19T05:47:47.824Z,83.04
2023-03-19T05:48:47.824Z,83.04
2023-03-19T05:49:47.810Z,83.24
2023-03-19T05:50:47.784Z,83.14
2023-03-19T05:51:47.797Z,82.73
2023-03-19T05:52:47.784Z,83.14
2023-03-19T05:53:47.767Z,83.44
2023-03-19T05:54:47.740Z,83.34
2023-03-19T05:55:47.726Z,83.44
2023-03-19T05:56:47.753Z,83.14
2023-03-19T05:57:47.743Z,83.44
2023-03-19T05:58:47.701Z,83.30
2023-03-19T05:59:47.681Z,83.04
2023-03-19T06:00:47.669Z,83.44
2023-03-19T06:01:47.679Z,83.30
2023-03-19T06:02:47.784Z,83.20
2023-03-19T06:03:47.736Z,83.30
2023-03-19T06:04:47.661Z,83.00
2023-03-19T06:05:47.628Z,83.30
2023-03-19T06:06:47.624Z,83.10
2023-03-19T06:07:47.611Z,83.00
2023-03-19T06:08:47.618Z,82.59
2023-03-19T06:09:47.588Z,82.75
2023-03-19T06:10:47.572Z,82.69
2023-03-19T06:11:47.557Z,82.75
2023-03-19T06:12:47.548Z,83.06
2023-03-19T06:13:47.587Z,82.45
2023-03-19T06:14:47.540Z,82.86
2023-03-19T06:15:47.534Z,82.75
2023-03-19T06:16:47.562Z,82.75
2023-03-19T06:17:47.489Z,82.86
2023-03-19T06:18:47.480Z,83.16
2023-03-19T06:19:47.519Z,82.71
2023-03-19T06:20:47.490Z,82.92
2023-03-19T06:21:47.445Z,82.00
2023-03-19T06:22:47.447Z,82.82
2023-03-19T06:23:47.472Z,82.41
2023-03-19T06:24:47.418Z,82.21
2023-03-19T06:25:47.408Z,81.80
2023-03-19T06:26:47.400Z,81.59
2023-03-19T06:27:47.390Z,81.23
2023-03-19T06:28:47.361Z,81.09
2023-03-19T06:29:47.397Z,81.63
2023-03-19T06:30:47.392Z,80.41
2023-03-19T06:31:47.398Z,80.30
2023-03-19T06:32:47.393Z,80.30
2023-03-19T06:33:47.336Z,80.20
2023-03-19T06:34:47.311Z,80.44
2023-03-19T06:35:47.355Z,80.14
2023-03-19T06:36:47.305Z,80.34
2023-03-19T06:37:47.306Z,79.83
2023-03-19T06:38:48.089Z,79.93
2023-03-19T06:39:47.253Z,79.90
2023-03-19T06:40:47.284Z,80.14
2023-03-19T06:41:47.240Z,78.81
2023-03-19T06:42:47.264Z,79.02
2023-03-19T06:43:47.215Z,78.91
2023-03-19T06:44:47.215Z,79.02
2023-03-19T06:45:47.271Z,79.02
2023-03-19T06:46:47.239Z,77.38
2023-03-19T06:47:47.177Z,76.97
2023-03-19T06:48:47.156Z,76.87
2023-03-19T06:49:47.152Z,76.70
2023-03-19T06:50:47.130Z,77.45
2023-03-19T06:51:47.123Z,77.72
2023-03-19T06:52:47.170Z,78.13
2023-03-19T06:53:47.112Z,78.23
2023-03-19T06:54:47.230Z,78.38
2023-03-19T06:55:47.113Z,78.07
2023-03-19T06:56:47.088Z,77.86
2023-03-19T06:57:47.093Z,77.45
2023-03-19T06:58:47.086Z,77.86
2023-03-19T06:59:47.033Z,77.56
2023-03-19T07:00:47.054Z,77.56
2023-03-19T07:01:47.022Z,77.15
2023-03-19T07:02:47.010Z,78.00
2023-03-19T07:03:47.130Z,77.35
2023-03-19T07:04:47.140Z,77.73
2023-03-19T07:05:46.986Z,78.45
2023-03-19T07:06:46.957Z,78.24
2023-03-19T07:07:46.952Z,78.75
2023-03-19T07:08:46.972Z,78.96
2023-03-19T07:09:46.967Z,78.96
2023-03-19T07:10:46.950Z,80.05
2023-03-19T07:11:46.916Z,79.74
2023-03-19T07:12:46.890Z,80.05
2023-03-19T07:13:46.886Z,80.42
2023-03-19T07:14:46.879Z,80.42
2023-03-19T07:15:46.896Z,80.32
2023-03-19T07:16:46.887Z,80.62
2023-03-19T07:17:46.837Z,78.99
2023-03-19T07:18:46.833Z,79.50
2023-03-19T07:19:46.820Z,78.92
2023-03-19T07:20:46.848Z,78.52
2023-03-19T07:21:46.790Z,78.88
2023-03-19T07:22:46.799Z,79.33
2023-03-19T07:23:46.780Z,79.39
2023-03-19T07:24:46.786Z,78.88
2023-03-19T07:25:46.778Z,78.88
2023-03-19T07:26:46.752Z,79.09
2023-03-19T07:27:46.755Z,79.09
2023-03-19T07:28:46.742Z,79.50
2023-03-19T07:29:46.714Z,79.60
2023-03-19T07:30:46.724Z,79.77
2023-03-19T07:31:46.720Z,80.58
2023-03-19T07:32:46.703Z,80.89
2023-03-19T07:33:46.669Z,81.71
2023-03-19T07:34:46.660Z,81.40
2023-03-19T07:35:46.696Z,81.71
2023-03-19T07:36:46.642Z,81.30
2023-03-19T07:37:46.640Z,80.75
2023-03-19T07:38:46.600Z,80.65
2023-03-19T07:39:46.600Z,80.75
2023-03-19T07:41:00.929Z,81.63
2023-03-19T07:41:47.575Z,81.53
2023-03-19T07:42:46.601Z,80.68
2023-03-19T07:43:46.558Z,80.68
2023-03-19T07:44:46.556Z,80.27
2023-03-19T07:45:46.552Z,80.02
2023-03-19T07:46:46.525Z,79.72
2023-03-19T07:47:48.593Z,79.52
2023-03-19T07:48:46.499Z,79.41
2023-03-19T07:49:46.480Z,78.77
2023-03-19T07:50:46.494Z,79.38
2023-03-19T07:51:46.470Z,79.79
2023-03-19T07:52:46.479Z,79.68
2023-03-19T07:53:46.462Z,79.58
2023-03-19T07:54:46.446Z,78.46
2023-03-19T07:55:46.445Z,78.77
2023-03-19T07:56:46.673Z,78.80
2023-03-19T07:57:46.403Z,78.80
2023-03-19T07:58:46.428Z,78.70
2023-03-19T07:59:46.382Z,78.80
2023-03-19T08:00:46.368Z,78.70
2023-03-19T08:01:46.365Z,78.91
2023-03-19T08:02:46.437Z,78.80
2023-03-19T08:03:46.334Z,77.78
2023-03-19T08:04:46.351Z,77.82
2023-03-19T08:05:46.311Z,77.62
2023-03-19T08:06:46.297Z,77.62
2023-03-19T08:07:46.324Z,78.12
2023-03-19T08:08:46.288Z,77.68
2023-03-19T08:09:46.392Z,77.17
2023-03-19T08:10:46.251Z,78.09
2023-03-19T08:11:46.246Z,77.68
2023-03-19T08:12:46.259Z,77.78
2023-03-19T08:13:46.231Z,78.30
2023-03-19T08:14:46.241Z,78.50
2023-03-19T08:15:46.249Z,78.60
2023-03-19T08:16:46.261Z,78.91
2023-03-19T08:17:46.192Z,78.80
2023-03-19T08:18:46.181Z,78.36
2023-03-19T08:19:46.168Z,78.56
2023-03-19T08:20:46.664Z,78.16
2023-03-19T08:21:46.131Z,78.50
2023-03-19T08:22:46.152Z,78.60
2023-03-19T08:23:46.121Z,77.78
2023-03-19T08:24:46.103Z,77.68
2023-03-19T08:25:46.125Z,77.51
2023-03-19T08:26:46.081Z,77.21
2023-03-19T08:27:46.080Z,78.12
2023-03-19T08:28:46.082Z,78.43
2023-03-19T08:29:46.049Z,78.74
2023-03-19T08:30:46.113Z,79.80
2023-03-19T08:31:46.033Z,80.37
2023-03-19T08:32:46.082Z,79.90
2023-03-19T08:33:46.011Z,80.20
2023-03-19T08:34:48.308Z,80.85
2023-03-19T08:35:46.069Z,80.44
2023-03-19T08:36:45.973Z,80.85
2023-03-19T08:37:45.989Z,81.30
2023-03-19T08:38:45.948Z,82.42
2023-03-19T08:39:45.945Z,82.32
2023-03-19T08:40:45.941Z,83.34
2023-03-19T08:41:45.922Z,83.24
2023-03-19T08:42:45.917Z,84.00
2023-03-19T08:43:45.930Z,84.30
2023-03-19T08:44:46.763Z,84.09
2023-03-19T08:45:45.877Z,85.22
2023-03-19T08:46:45.857Z,85.73
2023-03-19T08:47:45.859Z,85.94
2023-03-19T08:48:46.101Z,86.44
2023-03-19T08:49:45.868Z,86.35
2023-03-19T08:50:45.895Z,86.35
2023-03-19T08:51:45.814Z,86.14
2023-03-19T08:52:45.853Z,86.35
2023-03-19T08:53:45.816Z,86.96
2023-03-19T08:54:45.775Z,86.96
2023-03-19T08:55:45.800Z,87.51
2023-03-19T08:56:45.764Z,87.41
2023-03-19T08:57:45.756Z,87.61
2023-03-19T08:58:52.845Z,87.71
2023-03-19T08:59:45.723Z,87.76
2023-03-19T09:00:45.758Z,88.06
2023-03-19T09:01:45.725Z,89.12
2023-03-19T09:02:45.684Z,89.23
2023-03-19T09:03:45.672Z,89.74
2023-03-19T09:04:45.692Z,89.33
2023-03-19T09:05:45.684Z,89.74
2023-03-19T09:06:45.655Z,90.05
2023-03-19T09:07:45.631Z,90.25
2023-03-19T09:08:45.660Z,90.66
2023-03-19T09:09:45.626Z,90.45
2023-03-19T09:10:45.603Z,90.25
2023-03-19T09:11:45.587Z,90.15
2023-03-19T09:12:48.347Z,90.15
2023-03-19T09:13:45.614Z,89.94
2023-03-19T09:14:45.553Z,90.31
2023-03-19T09:15:45.560Z,90.52
2023-03-19T09:16:45.587Z,90.78
2023-03-19T09:17:45.532Z,90.47
2023-03-19T09:18:45.509Z,90.27
2023-03-19T09:19:45.505Z,90.27
2023-03-19T09:20:45.495Z,90.23
2023-03-19T09:21:45.513Z,90.53
2023-03-19T09:22:45.463Z,90.12
2023-03-19T09:23:45.461Z,89.92
2023-03-19T09:24:45.490Z,89.61
2023-03-19T09:25:45.444Z,89.67
2023-03-19T09:26:45.426Z,89.98
2023-03-19T09:27:45.446Z,89.12
2023-03-19T09:28:45.397Z,89.23
2023-03-19T09:29:45.397Z,89.32
2023-03-19T09:30:45.383Z,89.02
2023-03-19T09:31:45.411Z,89.12
2023-03-19T09:32:45.443Z,88.88
2023-03-19T09:33:45.382Z,88.98
2023-03-19T09:34:45.349Z,88.88
2023-03-19T09:35:45.383Z,88.32
2023-03-19T09:36:45.365Z,88.67
2023-03-19T09:37:45.309Z,88.43
2023-03-19T09:38:45.290Z,86.90
2023-03-19T09:39:45.349Z,87.00
2023-03-19T09:40:45.272Z,87.06
2023-03-19T09:41:45.260Z,87.32
2023-03-19T09:42:45.295Z,86.92
2023-03-19T09:43:45.236Z,86.37
2023-03-19T09:44:45.234Z,86.47
2023-03-19T09:45:45.227Z,86.77
2023-03-19T09:46:45.291Z,86.43
2023-03-19T09:47:45.229Z,84.43
2023-03-19T09:48:45.207Z,84.80
2023-03-19T09:49:45.184Z,85.41
2023-03-19T09:50:45.197Z,85.31
2023-03-19T09:51:45.161Z,84.80
2023-03-19T09:52:45.150Z,84.50
2023-03-19T09:53:45.128Z,85.11
2023-03-19T09:54:45.152Z,84.59
2023-03-19T09:55:45.108Z,83.92
2023-03-19T09:56:45.141Z,84.50
2023-03-19T09:57:45.086Z,85.11
2023-03-19T09:58:45.077Z,85.31
2023-03-19T09:59:45.065Z,85.41
2023-03-19T10:00:45.055Z,85.37
2023-03-19T10:01:45.048Z,84.76
2023-03-19T10:02:45.072Z,84.97
2023-03-19T10:03:45.050Z,84.56
2023-03-19T10:04:45.023Z,84.76
2023-03-19T10:05:45.003Z,83.95
2023-03-19T10:06:44.984Z,83.64
2023-03-19T10:07:44.968Z,83.95
2023-03-19T10:08:45.002Z,83.60
2023-03-19T10:09:44.989Z,83.70
2023-03-19T10:10:44.943Z,82.89
2023-03-19T10:11:44.992Z,82.18
2023-03-19T10:12:44.926Z,81.98
2023-03-19T10:13:44.935Z,81.40
2023-03-19T10:14:44.899Z,82.01
2023-03-19T10:15:44.901Z,83.13
2023-03-19T10:16:44.920Z,83.03
2023-03-19T10:17:44.861Z,83.03
2023-03-19T10:18:45.306Z,82.99
2023-03-19T10:19:45.113Z,82.93
2023-03-19T10:20:44.901Z,81.77
2023-03-19T10:21:44.821Z,81.37
2023-03-19T10:22:44.810Z,81.20
2023-03-19T10:23:44.839Z,81.71
2023-03-19T10:24:44.823Z,81.91
2023-03-19T10:25:44.786Z,82.38
2023-03-19T10:26:44.764Z,82.59
2023-03-19T10:27:44.761Z,81.77
2023-03-19T10:28:44.774Z,81.26
2023-03-19T10:29:44.763Z,81.67
2023-03-19T10:30:44.734Z,81.98
2023-03-19T10:31:44.850Z,81.84
2023-03-19T10:32:44.717Z,81.59
2023-03-19T10:33:44.736Z,80.84
2023-03-19T10:34:44.683Z,80.74
2023-03-19T10:35:44.756Z,80.24
2023-03-19T10:36:44.690Z,79.12
2023-03-19T10:37:44.642Z,79.36
2023-03-19T10:38:44.670Z,79.77
2023-03-19T10:39:44.639Z,80.47
2023-03-19T10:40:44.642Z,80.13
2023-03-19T10:41:44.613Z,79.93
2023-03-19T10:42:44.590Z,79.90
2023-03-19T10:43:44.607Z,79.18
2023-03-19T10:44:44.593Z,79.38
2023-03-19T10:45:44.637Z,79.35
2023-03-19T10:46:44.583Z,78.94
2023-03-19T10:47:44.537Z,78.50
2023-03-19T10:48:44.531Z,77.55
2023-03-19T10:49:44.531Z,77.14
2023-03-19T10:50:44.500Z,77.31
2023-03-19T10:51:44.515Z,76.90
2023-03-19T10:52:44.501Z,75.38
2023-03-19T10:53:44.481Z,75.08
2023-03-19T10:54:44.474Z,74.68
2023-03-19T10:55:44.506Z,74.74
2023-03-19T10:56:44.449Z,74.74
2023-03-19T10:57:44.459Z,74.74
2023-03-19T10:58:44.422Z,74.44
2023-03-19T10:59:44.410Z,73.63
2023-03-19T11:00:44.478Z,72.61
2023-03-19T11:01:44.392Z,73.73
2023-03-19T11:02:44.380Z,74.95
2023-03-19T11:03:44.380Z,74.33
2023-03-19T11:04:44.367Z,72.81
2023-03-19T11:05:44.352Z,73.02
2023-03-19T11:06:44.368Z,73.02
2023-03-19T11:07:44.332Z,72.81
2023-03-19T11:08:44.319Z,72.11
2023-03-19T11:09:44.298Z,73.16
2023-03-19T11:10:44.381Z,73.63
2023-03-19T11:11:44.555Z,73.05
2023-03-19T11:12:44.263Z,73.02
2023-03-19T11:13:44.276Z,71.88
2023-03-19T11:14:44.240Z,71.09
2023-03-19T11:15:44.228Z,71.37
2023-03-19T11:16:44.237Z,72.28
2023-03-19T11:17:44.246Z,71.53
2023-03-19T11:18:44.190Z,71.33
2023-03-19T11:19:44.204Z,71.23
2023-03-19T11:20:44.166Z,71.70
2023-03-19T11:21:44.160Z,71.20
2023-03-19T11:22:44.222Z,70.89
2023-03-19T11:23:44.155Z,71.20
2023-03-19T11:24:44.169Z,72.51
2023-03-19T11:25:44.132Z,72.01
2023-03-19T11:26:44.097Z,72.81
2023-03-19T11:27:44.143Z,71.70
2023-03-19T11:28:44.087Z,71.09
2023-03-19T11:29:44.071Z,71.33
2023-03-19T11:30:44.054Z,71.94
2023-03-19T11:31:44.114Z,71.88
2023-03-19T11:32:44.202Z,72.34
2023-03-19T11:33:44.061Z,71.97
2023-03-19T11:34:44.011Z,71.16
2023-03-19T11:35:44.113Z,71.37
2023-03-19T11:36:44.016Z,71.80
2023-03-19T11:37:43.980Z,72.01
2023-03-19T11:38:44.002Z,71.80
2023-03-19T11:39:43.996Z,71.80
2023-03-19T11:40:43.977Z,72.11
2023-03-19T11:41:43.943Z,71.80
2023-03-19T11:42:43.948Z,71.60
2023-03-19T11:43:43.954Z,71.20
2023-03-19T11:44:43.910Z,73.02
2023-03-19T11:45:43.992Z,73.22
2023-03-19T11:46:43.890Z,73.02
2023-03-19T11:47:43.880Z,72.11
2023-03-19T11:48:43.900Z,72.31
2023-03-19T11:49:43.874Z,71.50
2023-03-19T11:50:43.849Z,72.01
2023-03-19T11:51:43.842Z,72.72
2023-03-19T11:52:43.853Z,72.72
2023-03-19T11:53:43.823Z,72.72
2023-03-19T11:54:43.812Z,72.04
2023-03-19T11:55:43.927Z,72.11
2023-03-19T11:56:43.793Z,72.92
2023-03-19T11:57:43.784Z,72.55
2023-03-19T11:58:43.771Z,72.81
2023-03-19T11:59:43.763Z,73.43
2023-03-19T12:00:43.785Z,72.61
2023-03-19T12:01:43.746Z,73.12
2023-03-19T12:02:43.813Z,73.22
2023-03-19T12:03:43.809Z,72.72
2023-03-19T12:04:43.697Z,72.52
2023-03-19T12:05:43.733Z,73.12
2023-03-19T12:06:43.684Z,72.41
2023-03-19T12:07:43.669Z,72.01
2023-03-19T12:08:43.658Z,73.12
2023-03-19T12:09:43.668Z,73.16
2023-03-19T12:10:43.645Z,72.92
2023-03-19T12:11:43.716Z,73.02
2023-03-19T12:12:43.632Z,72.85
2023-03-19T12:13:43.601Z,73.02
2023-03-19T12:14:43.605Z,73.22
2023-03-19T12:15:43.673Z,72.92
2023-03-19T12:16:46.503Z,72.81
2023-03-19T12:17:43.555Z,73.12
2023-03-19T12:18:43.549Z,73.02
2023-03-19T12:19:43.530Z,73.16
2023-03-19T12:20:43.533Z,72.31
2023-03-19T12:21:43.516Z,72.01
2023-03-19T12:22:43.538Z,72.75
2023-03-19T12:23:43.543Z,73.16
2023-03-19T12:24:43.486Z,73.05
2023-03-19T12:25:43.471Z,72.52
2023-03-19T12:26:43.455Z,73.02
2023-03-19T12:27:43.495Z,72.61
2023-03-19T12:28:43.503Z,72.81
2023-03-19T12:29:43.432Z,73.12
2023-03-19T12:30:43.517Z,72.92
2023-03-19T12:31:43.436Z,73.02
2023-03-19T12:32:43.490Z,72.92
2023-03-19T12:33:43.407Z,72.48
2023-03-19T12:34:43.374Z,72.28
2023-03-19T12:35:43.388Z,72.88
2023-03-19T12:36:43.362Z,72.68
2023-03-19T12:37:43.339Z,71.77
2023-03-19T12:38:43.376Z,71.37
2023-03-19T12:39:44.289Z,71.77
2023-03-19T12:40:43.312Z,71.97
2023-03-19T12:41:43.297Z,71.73
2023-03-19T12:42:43.283Z,71.03
2023-03-19T12:43:43.310Z,71.06
2023-03-19T12:44:43.304Z,71.16
2023-03-19T12:45:43.256Z,71.06
2023-03-19T12:46:43.329Z,71.37
2023-03-19T12:47:43.224Z,71.37
2023-03-19T12:48:43.250Z,71.57
2023-03-19T12:49:43.427Z,71.88
2023-03-19T12:50:43.187Z,71.77
2023-03-19T12:51:43.178Z,72.99
2023-03-19T12:52:43.196Z,72.24